Time;durP1;ratioP1;P1;durP2;ratioP2;P2;SDS_P1;SDS_P2;PMS_P1;PMS_P2;Temp;Humidity;BMP_temperature;BMP_pressure;BME280_temperature;BME280_humidity;BME280_pressure;Samples;Min_cycle;Max_cycle;Signal;HPM_P1;HPM_P2
2023/07/14 00:00:21;;;;;;;3.72;1.33;;;13.20;99.90;;;;;;4971505;28;20109;-78
2023/07/14 00:02:48;;;;;;;4.93;1.50;;;13.30;99.90;;;;;;4954059;28;20027;-77
2023/07/14 00:05:18;;;;;;;1.25;1.00;;;13.30;99.90;;;;;;4953426;28;20065;-77
2023/07/14 00:07:49;;;;;;;2.53;1.13;;;13.20;99.90;;;;;;4953743;28;20090;-78
2023/07/14 00:10:23;;;;;;;1.20;1.10;;;13.20;99.90;;;;;;4953777;28;20039;-77
2023/07/14 00:12:53;;;;;;;4.45;1.15;;;13.20;99.90;;;;;;4954227;28;20027;-78
2023/07/14 00:15:23;;;;;;;0.80;0.80;;;13.20;99.90;;;;;;4954078;28;20557;-77
2023/07/14 00:17:55;;;;;;;1.10;1.10;;;13.20;99.90;;;;;;4971421;28;20035;-77
2023/07/14 00:20:33;;;;;;;0.98;0.98;;;13.10;99.90;;;;;;4970862;28;20522;-77
2023/07/14 00:22:58;;;;;;;1.23;1.13;;;13.10;99.90;;;;;;4971343;28;20102;-77
2023/07/14 00:25:25;;;;;;;2.75;0.98;;;12.90;99.90;;;;;;4971249;28;20118;-78
2023/07/14 00:27:56;;;;;;;1.45;1.35;;;12.90;99.90;;;;;;4953806;28;20051;-77
2023/07/14 00:30:24;;;;;;;1.20;1.10;;;12.80;99.90;;;;;;4954107;28;20407;-77
2023/07/14 00:32:51;;;;;;;4.45;2.03;;;12.80;99.90;;;;;;4971162;28;20031;-77
2023/07/14 00:35:28;;;;;;;3.78;1.05;;;12.80;99.90;;;;;;4954364;28;20023;-78
2023/07/14 00:37:57;;;;;;;3.42;1.33;;;12.80;99.90;;;;;;4975411;28;20492;-77
2023/07/14 00:40:38;;;;;;;5.30;1.60;;;12.80;99.90;;;;;;4957689;28;20049;-77
2023/07/14 00:43:13;;;;;;;1.35;1.23;;;12.70;99.90;;;;;;4957536;28;20041;-77
2023/07/14 00:45:39;;;;;;;1.40;1.30;;;12.70;99.90;;;;;;4957221;28;20066;-78
2023/07/14 00:48:06;;;;;;;1.08;1.02;;;12.80;99.90;;;;;;4957303;28;20104;-77
2023/07/14 00:51:01;;;;;;;3.05;1.20;;;12.80;99.90;;;;;;4957353;28;20086;-77
2023/07/14 00:53:36;;;;;;;4.18;1.58;;;12.90;99.90;;;;;;4946962;28;20074;-77
2023/07/14 00:56:41;;;;;;;1.55;1.45;;;12.80;99.90;;;;;;4957282;28;20447;-78
2023/07/14 00:59:17;;;;;;;1.50;1.40;;;12.80;99.90;;;;;;4974695;28;20081;-77
2023/07/14 01:02:15;;;;;;;3.88;0.98;;;12.70;99.90;;;;;;4957560;28;20125;-78
2023/07/14 01:05:04;;;;;;;1.60;1.27;;;12.70;99.90;;;;;;4974436;28;20038;-77
2023/07/14 01:07:35;;;;;;;1.52;1.42;;;12.60;99.90;;;;;;4974174;28;20387;-78
2023/07/14 01:10:01;;;;;;;1.33;1.23;;;12.50;99.90;;;;;;4974502;28;20030;-77
2023/07/14 01:12:29;;;;;;;1.33;1.23;;;12.40;99.90;;;;;;4957003;28;20031;-78
2023/07/14 01:14:57;;;;;;;0.98;0.98;;;12.40;99.90;;;;;;4974412;28;20023;-77
2023/07/14 01:17:23;;;;;;;2.20;1.17;;;12.40;99.90;;;;;;4974411;28;20514;-77
2023/07/14 01:19:58;;;;;;;4.75;2.13;;;12.40;99.90;;;;;;4956536;28;20030;-78
2023/07/14 01:22:59;;;;;;;1.83;1.25;;;12.30;99.90;;;;;;4957279;28;20483;-77
2023/07/14 01:25:27;;;;;;;2.90;1.30;;;12.30;99.90;;;;;;4956625;28;20039;-77
2023/07/14 01:27:53;;;;;;;1.98;1.38;;;12.40;99.90;;;;;;4956793;28;20030;-78
2023/07/14 01:30:20;;;;;;;2.05;1.55;;;12.30;99.90;;;;;;4956521;28;20035;-78
2023/07/14 01:32:49;;;;;;;1.25;1.10;;;12.40;99.90;;;;;;4956802;28;20104;-78
2023/07/14 01:35:16;;;;;;;1.37;1.00;;;12.40;99.90;;;;;;4956221;28;20038;-78
2023/07/14 01:37:42;;;;;;;1.35;1.25;;;12.40;99.90;;;;;;4956868;28;20507;-77
2023/07/14 01:40:13;;;;;;;1.48;1.00;;;12.30;99.90;;;;;;4956474;28;20027;-77
2023/07/14 01:42:42;;;;;;;3.67;1.80;;;12.20;99.90;;;;;;4974048;28;20361;-77
2023/07/14 01:45:14;;;;;;;3.60;1.40;;;12.20;99.90;;;;;;4973799;28;20109;-78
2023/07/14 01:47:43;;;;;;;3.88;1.45;;;12.10;99.90;;;;;;4972197;28;20042;-78
2023/07/14 01:50:40;;;;;;;4.47;1.92;;;12.10;99.90;;;;;;4973625;28;20585;-77
2023/07/14 01:53:15;;;;;;;1.48;1.38;;;12.00;99.90;;;;;;4955662;28;20031;-77
2023/07/14 01:55:43;;;;;;;1.77;1.25;;;12.00;99.90;;;;;;4956500;28;20033;-78
2023/07/14 01:58:20;;;;;;;1.80;1.42;;;12.10;99.90;;;;;;4955926;28;20028;-77
2023/07/14 02:00:48;;;;;;;4.40;1.30;;;12.10;99.90;;;;;;4955912;28;20034;-77
2023/07/14 02:03:18;;;;;;;4.60;1.83;;;12.00;99.90;;;;;;4973440;28;20019;-78
2023/07/14 02:05:44;;;;;;;1.30;1.20;;;12.00;99.90;;;;;;4956125;28;20042;-77
2023/07/14 02:08:22;;;;;;;2.13;1.40;;;12.10;99.90;;;;;;4955918;28;20435;-78
2023/07/14 02:10:48;;;;;;;4.63;1.30;;;12.00;99.90;;;;;;4956385;28;20503;-78
2023/07/14 02:13:13;;;;;;;3.22;1.67;;;12.00;99.90;;;;;;4972971;28;20058;-78
2023/07/14 02:15:39;;;;;;;3.42;1.20;;;12.00;99.90;;;;;;4955819;28;20526;-77
2023/07/14 02:18:04;;;;;;;4.15;1.55;;;12.00;99.90;;;;;;4973279;28;20034;-78
2023/07/14 02:20:38;;;;;;;1.77;1.42;;;12.00;99.90;;;;;;4973045;28;20496;-78
2023/07/14 02:23:06;;;;;;;2.60;1.67;;;12.00;99.90;;;;;;4973282;28;20082;-77
2023/07/14 02:25:38;;;;;;;3.33;1.70;;;11.90;99.90;;;;;;4956124;28;20131;-77
2023/07/14 02:28:04;;;;;;;3.42;1.27;;;12.00;99.90;;;;;;4956301;28;20451;-77
2023/07/14 02:30:33;;;;;;;1.95;1.65;;;11.90;99.90;;;;;;4973354;28;20570;-77
2023/07/14 02:33:10;;;;;;;1.65;1.45;;;11.70;99.90;;;;;;4955022;28;20508;-78
2023/07/14 02:35:39;;;;;;;1.38;1.20;;;11.70;99.90;;;;;;4972480;28;20065;-77
2023/07/14 02:38:16;;;;;;;2.90;1.60;;;11.60;99.90;;;;;;4955478;28;20246;-77
2023/07/14 02:40:47;;;;;;;1.65;1.48;;;11.60;99.90;;;;;;4955392;28;20023;-77
2023/07/14 02:43:16;;;;;;;2.08;1.73;;;11.60;99.90;;;;;;4973122;28;20392;-77
2023/07/14 02:46:24;;;;;;;1.35;1.25;;;11.60;99.90;;;;;;4972676;28;20045;-77
2023/07/14 02:48:51;;;;;;;2.03;1.60;;;11.60;99.90;;;;;;4951257;28;20038;-77
2023/07/14 02:51:17;;;;;;;9.02;1.70;;;11.60;99.90;;;;;;4954692;28;20023;-78
2023/07/14 02:53:43;;;;;;;7.15;2.17;;;11.70;99.90;;;;;;4954983;28;20030;-77
2023/07/14 02:56:09;;;;;;;4.20;1.98;;;11.60;99.90;;;;;;4972401;28;20063;-77
2023/07/14 02:58:36;;;;;;;2.95;1.83;;;11.60;99.90;;;;;;4955423;28;20023;-77
2023/07/14 03:01:03;;;;;;;1.60;1.50;;;11.60;99.90;;;;;;4972730;28;20022;-78
2023/07/14 03:03:29;;;;;;;2.80;1.58;;;11.60;99.90;;;;;;4955489;28;20106;-78
2023/07/14 03:05:55;;;;;;;1.98;1.30;;;11.50;99.90;;;;;;4972548;28;20411;-77
2023/07/14 03:08:22;;;;;;;2.40;1.20;;;11.60;99.90;;;;;;4972185;28;20579;-77
2023/07/14 03:10:54;;;;;;;2.00;1.15;;;11.50;99.90;;;;;;4972408;28;20238;-77
2023/07/14 03:13:20;;;;;;;3.22;1.35;;;11.50;99.90;;;;;;4972132;28;20026;-78
2023/07/14 03:15:46;;;;;;;2.45;1.20;;;11.50;99.90;;;;;;4954455;28;20023;-79
2023/07/14 03:18:11;;;;;;;1.35;1.17;;;11.50;99.90;;;;;;4971848;28;20388;-78
2023/07/14 03:20:40;;;;;;;1.30;1.20;;;11.50;99.90;;;;;;4971117;28;20066;-77
2023/07/14 03:23:05;;;;;;;1.92;1.30;;;11.40;99.90;;;;;;4971753;28;20089;-77
2023/07/14 03:25:33;;;;;;;1.80;1.38;;;11.30;99.90;;;;;;4954222;28;20579;-77
2023/07/14 03:28:01;;;;;;;5.20;1.77;;;11.30;99.90;;;;;;4972250;28;20026;-77
2023/07/14 03:30:27;;;;;;;1.55;1.35;;;11.20;99.90;;;;;;4971930;28;20066;-77
2023/07/14 03:32:53;;;;;;;1.30;1.20;;;11.30;99.90;;;;;;4954580;28;20452;-78
2023/07/14 03:35:19;;;;;;;1.50;1.40;;;11.30;99.90;;;;;;4954447;28;20077;-77
2023/07/14 03:37:45;;;;;;;1.90;1.40;;;11.20;99.90;;;;;;4954522;28;20023;-78
2023/07/14 03:40:11;;;;;;;3.25;1.63;;;11.30;99.90;;;;;;4954539;28;20053;-77
2023/07/14 03:42:38;;;;;;;3.63;1.92;;;11.20;99.90;;;;;;4954218;28;20479;-77
2023/07/14 03:45:05;;;;;;;1.48;1.38;;;11.20;99.90;;;;;;4954202;28;20031;-78
2023/07/14 03:47:31;;;;;;;3.03;1.70;;;11.20;99.90;;;;;;4971708;28;20019;-78
2023/07/14 03:49:57;;;;;;;3.55;1.45;;;11.30;99.90;;;;;;4953364;28;20038;-78
2023/07/14 03:52:23;;;;;;;6.20;1.98;;;11.40;99.90;;;;;;4954323;28;20022;-77
2023/07/14 03:54:49;;;;;;;4.82;1.70;;;11.50;99.90;;;;;;4954077;28;20444;-78
2023/07/14 03:57:14;;;;;;;3.70;1.38;;;11.60;99.90;;;;;;4954373;28;20023;-77
2023/07/14 03:59:40;;;;;;;3.03;1.30;;;11.70;99.90;;;;;;4954198;28;20027;-78
2023/07/14 04:02:06;;;;;;;1.20;1.10;;;11.70;99.90;;;;;;4953690;28;20494;-77
2023/07/14 04:04:31;;;;;;;1.98;1.27;;;11.70;99.90;;;;;;4971515;28;20038;-77
2023/07/14 04:06:57;;;;;;;3.42;1.33;;;11.60;99.90;;;;;;4953532;28;20058;-77
2023/07/14 04:09:23;;;;;;;1.83;1.70;;;11.50;99.90;;;;;;4953883;28;20035;-77
2023/07/14 04:11:48;;;;;;;1.63;1.52;;;11.50;99.90;;;;;;4971522;28;20062;-77
2023/07/14 04:14:14;;;;;;;1.83;1.15;;;11.50;99.90;;;;;;4954035;28;20027;-78
2023/07/14 04:16:40;;;;;;;3.42;1.77;;;11.50;99.90;;;;;;4971531;28;20039;-77
2023/07/14 04:19:06;;;;;;;1.63;1.52;;;11.60;99.90;;;;;;4972017;28;20090;-77
2023/07/14 04:21:32;;;;;;;5.40;1.50;;;11.60;99.90;;;;;;4953631;28;20279;-77
2023/07/14 04:23:58;;;;;;;2.38;1.60;;;11.70;99.90;;;;;;4954259;28;20027;-77
2023/07/14 04:26:25;;;;;;;2.90;1.40;;;11.70;99.90;;;;;;4953896;28;20182;-77
2023/07/14 04:28:51;;;;;;;3.25;1.50;;;11.70;99.90;;;;;;4971753;28;20019;-78
2023/07/14 04:31:17;;;;;;;1.80;1.55;;;11.70;99.90;;;;;;4954116;28;20514;-77
2023/07/14 04:33:44;;;;;;;5.07;1.92;;;11.70;99.90;;;;;;4954425;28;20030;-77
2023/07/14 04:36:10;;;;;;;2.88;1.63;;;11.80;99.90;;;;;;4970961;28;20538;-78
2023/07/14 04:38:36;;;;;;;1.02;1.02;;;11.90;99.90;;;;;;4953661;28;20301;-78
2023/07/14 04:41:03;;;;;;;3.90;2.40;;;11.90;99.90;;;;;;4971273;28;20034;-78
2023/07/14 04:43:28;;;;;;;2.13;1.60;;;11.90;99.90;;;;;;4954004;28;20504;-78
2023/07/14 04:45:54;;;;;;;1.77;1.67;;;11.90;99.90;;;;;;4953781;28;20062;-77
2023/07/14 04:48:23;;;;;;;3.13;1.40;;;12.00;99.90;;;;;;4971156;28;20046;-78
2023/07/14 04:50:50;;;;;;;2.08;1.20;;;12.10;99.90;;;;;;4953513;28;20022;-78
2023/07/14 04:53:17;;;;;;;0.98;0.90;;;12.30;99.90;;;;;;4971182;28;20278;-77
2023/07/14 04:55:45;;;;;;;2.10;1.48;;;12.50;99.90;;;;;;4970824;28;20019;-78
2023/07/14 04:58:12;;;;;;;2.00;1.80;;;12.60;99.90;;;;;;4953327;28;20035;-78
2023/07/14 05:00:40;;;;;;;1.55;1.42;;;12.70;99.90;;;;;;4953041;28;20481;-78
2023/07/14 05:03:06;;;;;;;1.15;1.05;;;13.10;99.90;;;;;;4953210;28;20030;-77
2023/07/14 05:05:32;;;;;;;1.55;1.00;;;13.40;99.90;;;;;;4952687;28;20093;-78
2023/07/14 05:08:00;;;;;;;2.63;1.80;;;13.70;99.90;;;;;;4970903;28;20019;-77
2023/07/14 05:10:27;;;;;;;1.02;1.02;;;13.80;99.90;;;;;;4953112;28;20278;-77
2023/07/14 05:12:55;;;;;;;8.20;1.73;;;13.90;99.90;;;;;;4970483;28;20034;-77
2023/07/14 05:15:21;;;;;;;1.63;1.50;;;14.00;99.90;;;;;;4970418;28;20026;-77
2023/07/14 05:17:48;;;;;;;1.20;1.10;;;14.00;99.90;;;;;;4952653;28;20078;-78
2023/07/14 05:20:15;;;;;;;1.50;1.30;;;14.10;99.90;;;;;;4969630;28;20515;-77
2023/07/14 05:22:47;;;;;;;0.95;0.95;;;14.20;99.90;;;;;;4972593;28;20031;-78
2023/07/14 05:25:15;;;;;;;2.17;1.42;;;14.30;99.90;;;;;;4955884;28;20499;-78
2023/07/14 05:27:43;;;;;;;2.10;1.30;;;14.50;99.90;;;;;;4972965;28;20394;-77
2023/07/14 05:30:11;;;;;;;1.27;1.02;;;14.70;99.90;;;;;;4955783;28;20397;-78
2023/07/14 05:32:38;;;;;;;1.52;1.13;;;14.80;99.90;;;;;;4972893;28;20489;-78
2023/07/14 05:35:04;;;;;;;2.95;1.10;;;15.00;99.90;;;;;;4972508;28;20035;-78
2023/07/14 05:37:30;;;;;;;2.35;1.30;;;15.20;99.90;;;;;;4955362;28;20110;-78
2023/07/14 05:39:55;;;;;;;1.65;1.27;;;15.30;99.90;;;;;;4972890;28;20578;-77
2023/07/14 05:42:21;;;;;;;1.10;1.00;;;15.50;99.90;;;;;;4955534;28;20037;-78
2023/07/14 05:44:46;;;;;;;2.95;1.70;;;15.70;99.90;;;;;;4955273;28;20443;-78
2023/07/14 05:47:13;;;;;;;3.90;1.40;;;15.90;99.90;;;;;;4954919;28;20059;-78
2023/07/14 05:49:39;;;;;;;2.80;1.30;;;16.10;99.90;;;;;;4955067;28;20445;-78
2023/07/14 05:52:05;;;;;;;1.52;1.17;;;16.30;99.90;;;;;;4972628;28;20058;-78
2023/07/14 05:54:30;;;;;;;1.25;1.13;;;16.50;99.90;;;;;;4972450;28;20074;-78
2023/07/14 05:56:56;;;;;;;2.70;1.05;;;16.50;99.90;;;;;;4955339;28;20023;-78
2023/07/14 05:59:22;;;;;;;1.35;1.25;;;16.60;99.90;;;;;;4955032;28;20029;-78
2023/07/14 06:01:48;;;;;;;3.08;1.50;;;16.70;99.90;;;;;;4955142;28;20054;-78
2023/07/14 06:04:15;;;;;;;1.90;1.75;;;16.80;99.90;;;;;;4955085;28;20507;-78
2023/07/14 06:06:41;;;;;;;1.38;1.27;;;16.90;99.90;;;;;;4954730;28;20066;-78
2023/07/14 06:09:09;;;;;;;2.53;1.38;;;17.10;99.90;;;;;;4972515;28;20049;-78
2023/07/14 06:11:35;;;;;;;2.35;1.05;;;17.30;99.90;;;;;;4954971;28;20126;-78
2023/07/14 06:14:01;;;;;;;0.90;0.80;;;17.30;99.90;;;;;;4954828;28;20458;-78
2023/07/14 06:16:27;;;;;;;2.83;1.33;;;17.60;99.90;;;;;;4955154;28;20086;-78
2023/07/14 06:18:53;;;;;;;1.20;1.13;;;17.90;99.90;;;;;;4954763;28;20089;-78
2023/07/14 06:21:19;;;;;;;2.78;1.65;;;18.20;99.90;;;;;;4971693;28;20239;-78
2023/07/14 06:23:44;;;;;;;1.30;1.20;;;18.30;99.90;;;;;;4954607;28;20062;-78
2023/07/14 06:26:11;;;;;;;3.30;1.88;;;18.50;99.90;;;;;;4971862;28;20058;-78
2023/07/14 06:28:36;;;;;;;3.28;1.50;;;18.70;99.90;;;;;;4971775;28;20035;-78
2023/07/14 06:31:05;;;;;;;2.67;1.20;;;19.20;99.90;;;;;;4971813;28;20023;-78
2023/07/14 06:33:32;;;;;;;4.65;1.40;;;19.30;99.90;;;;;;4953912;28;20035;-78
2023/07/14 06:35:57;;;;;;;3.40;1.70;;;19.20;99.90;;;;;;4954140;28;20023;-78
2023/07/14 06:38:28;;;;;;;2.53;1.45;;;19.00;99.90;;;;;;4971887;28;20147;-78
2023/07/14 06:41:02;;;;;;;3.38;1.52;;;18.80;99.90;;;;;;4971773;28;20019;-78
2023/07/14 06:43:30;;;;;;;2.13;1.45;;;19.00;99.90;;;;;;4954257;28;20070;-77
2023/07/14 06:45:56;;;;;;;1.48;1.13;;;19.60;99.90;;;;;;4954180;28;20306;-78
2023/07/14 06:48:24;;;;;;;1.63;1.25;;;20.50;99.90;;;;;;4971542;28;20259;-77
2023/07/14 06:50:50;;;;;;;3.05;1.10;;;22.10;99.90;;;;;;4953635;28;20026;-78
2023/07/14 06:53:16;;;;;;;1.90;1.13;;;23.10;99.70;;;;;;4971534;28;20042;-78
2023/07/14 06:55:43;;;;;;;2.05;0.80;;;23.70;95.30;;;;;;4971446;28;20198;-79
2023/07/14 06:58:09;;;;;;;1.08;0.90;;;24.20;93.30;;;;;;4953977;28;20118;-78
2023/07/14 07:00:36;;;;;;;1.23;1.10;;;24.30;92.00;;;;;;4954030;28;20030;-79
2023/07/14 07:03:03;;;;;;;1.30;1.05;;;24.60;91.00;;;;;;4954159;28;20027;-79
2023/07/14 07:05:29;;;;;;;1.77;0.85;;;25.20;88.00;;;;;;4953426;28;20046;-78
2023/07/14 07:07:55;;;;;;;2.05;1.17;;;25.40;85.10;;;;;;4953688;28;20025;-78
2023/07/14 07:10:21;;;;;;;1.95;1.05;;;24.80;84.70;;;;;;4953582;28;20030;-78
2023/07/14 07:12:47;;;;;;;2.75;0.90;;;24.90;83.10;;;;;;4953824;28;20026;-78
2023/07/14 07:15:13;;;;;;;2.85;1.30;;;24.60;81.30;;;;;;4953862;28;20186;-78
2023/07/14 07:17:39;;;;;;;4.57;1.30;;;24.90;82.00;;;;;;4971283;28;20105;-78
2023/07/14 07:20:06;;;;;;;2.20;1.05;;;25.00;80.00;;;;;;4970597;28;20034;-78
2023/07/14 07:22:33;;;;;;;1.30;1.20;;;25.60;79.00;;;;;;4953464;28;20066;-78
2023/07/14 07:24:59;;;;;;;4.10;1.20;;;26.10;79.70;;;;;;4970749;28;20027;-78
2023/07/14 07:27:24;;;;;;;1.20;1.10;;;26.40;74.90;;;;;;4953528;28;20084;-78
2023/07/14 07:29:50;;;;;;;4.80;1.30;;;26.70;73.20;;;;;;4953591;28;20471;-78
2023/07/14 07:32:16;;;;;;;1.85;1.10;;;26.40;72.10;;;;;;4953645;28;20073;-78
2023/07/14 07:34:42;;;;;;;2.35;1.33;;;25.60;74.20;;;;;;4970600;28;20098;-79
2023/07/14 07:37:08;;;;;;;6.28;1.40;;;25.70;74.00;;;;;;4953756;28;20598;-78
2023/07/14 07:39:33;;;;;;;1.60;1.50;;;26.00;72.40;;;;;;4953362;28;20023;-78
2023/07/14 07:41:59;;;;;;;5.60;1.30;;;26.20;71.60;;;;;;4971163;28;20369;-78
2023/07/14 07:44:26;;;;;;;2.72;1.15;;;26.40;70.50;;;;;;4970212;28;20035;-79
2023/07/14 07:46:51;;;;;;;4.32;1.17;;;26.60;69.80;;;;;;4970432;28;20024;-78
2023/07/14 07:49:17;;;;;;;3.25;1.45;;;26.70;71.50;;;;;;4953077;28;20053;-78
2023/07/14 07:51:42;;;;;;;2.17;1.10;;;26.60;69.90;;;;;;4970238;28;20427;-78
2023/07/14 07:54:08;;;;;;;1.85;1.10;;;25.90;70.70;;;;;;4970575;28;20070;-78
2023/07/14 07:56:34;;;;;;;3.10;1.30;;;25.60;71.30;;;;;;4970529;28;20109;-78
2023/07/14 07:58:59;;;;;;;4.15;1.30;;;26.10;71.40;;;;;;4953485;28;20070;-79
2023/07/14 08:01:26;;;;;;;2.92;1.20;;;26.80;68.80;;;;;;4953160;28;20034;-78
2023/07/14 08:03:52;;;;;;;2.97;1.00;;;27.60;66.50;;;;;;4970436;28;20037;-78
2023/07/14 08:06:18;;;;;;;1.30;1.20;;;27.10;66.10;;;;;;4952615;28;20699;-79
2023/07/14 08:08:45;;;;;;;2.53;1.10;;;27.40;66.60;;;;;;4970468;28;20283;-79
2023/07/14 08:11:12;;;;;;;2.83;0.98;;;27.80;65.40;;;;;;4970426;28;20038;-79
2023/07/14 08:13:39;;;;;;;2.40;1.10;;;27.40;67.60;;;;;;4953028;28;20031;-79
2023/07/14 08:16:04;;;;;;;3.20;1.20;;;27.50;67.00;;;;;;4970358;28;20023;-79
2023/07/14 08:18:30;;;;;;;1.05;1.02;;;27.30;66.10;;;;;;4952792;28;20045;-78
2023/07/14 08:20:56;;;;;;;1.10;1.00;;;26.80;66.50;;;;;;4969432;28;20109;-78
2023/07/14 08:23:23;;;;;;;2.08;1.30;;;26.40;67.10;;;;;;4970194;28;20035;-78
2023/07/14 08:25:57;;;;;;;1.77;1.13;;;26.50;69.10;;;;;;4970049;28;20050;-78
2023/07/14 08:28:23;;;;;;;1.92;1.00;;;26.90;66.50;;;;;;4970064;28;20035;-78
2023/07/14 08:30:51;;;;;;;2.17;1.15;;;27.70;65.10;;;;;;4952826;28;20023;-79
2023/07/14 08:33:19;;;;;;;3.15;1.25;;;28.30;63.30;;;;;;4952914;28;20056;-79
2023/07/14 08:35:45;;;;;;;1.10;1.00;;;27.90;63.40;;;;;;4969683;28;20118;-79
2023/07/14 08:38:11;;;;;;;1.52;1.10;;;27.90;65.60;;;;;;4970202;28;20019;-78
2023/07/14 08:41:03;;;;;;;2.28;1.58;;;28.10;63.20;;;;;;4952862;28;20038;-78
2023/07/14 08:43:43;;;;;;;5.15;1.30;;;27.80;65.30;;;;;;4942735;28;20038;-78
2023/07/14 08:46:26;;;;;;;4.82;1.33;;;27.70;66.10;;;;;;4952948;28;20034;-79
2023/07/14 08:49:10;;;;;;;1.70;1.60;;;28.30;64.30;;;;;;4952790;28;20398;-78
2023/07/14 08:51:43;;;;;;;1.08;0.95;;;29.00;63.20;;;;;;4969589;28;20027;-79
2023/07/14 08:54:22;;;;;;;1.45;1.05;;;28.50;61.60;;;;;;4952673;28;20023;-79
2023/07/14 08:56:49;;;;;;;1.87;1.40;;;27.80;65.60;;;;;;4971602;28;20492;-79
2023/07/14 08:59:40;;;;;;;2.35;1.20;;;27.60;66.00;;;;;;4973684;28;20031;-79
2023/07/14 09:02:25;;;;;;;2.60;1.33;;;27.20;65.80;;;;;;4956022;28;20034;-78
2023/07/14 09:05:03;;;;;;;2.25;1.48;;;27.00;65.80;;;;;;4955632;28;20047;-78
2023/07/14 09:07:29;;;;;;;2.33;1.42;;;27.80;66.20;;;;;;4956031;28;20023;-78
2023/07/14 09:09:55;;;;;;;1.67;1.27;;;28.20;63.30;;;;;;4973473;28;20034;-78
2023/07/14 09:12:57;;;;;;;1.02;1.02;;;27.50;63.10;;;;;;4955722;28;20058;-79
2023/07/14 09:15:26;;;;;;;2.90;1.40;;;27.40;64.40;;;;;;4973151;28;20035;-78
2023/07/14 09:18:27;;;;;;;3.13;1.40;;;27.70;64.40;;;;;;4973552;28;20027;-79
2023/07/14 09:21:15;;;;;;;1.50;1.13;;;27.80;65.50;;;;;;4877899;29;20631;-79
2023/07/14 09:24:14;;;;;;;1.60;0.98;;;28.60;62.80;;;;;;4967836;28;20137;-78
2023/07/14 09:26:45;;;;;;;3.95;1.15;;;28.00;65.60;;;;;;4955848;28;20061;-78
2023/07/14 09:29:18;;;;;;;1.70;1.20;;;29.00;64.30;;;;;;4955430;28;20033;-79
2023/07/14 09:31:44;;;;;;;2.45;1.10;;;29.70;63.30;;;;;;4955447;28;20814;-79
2023/07/14 09:34:13;;;;;;;1.75;1.25;;;28.40;63.90;;;;;;4973069;28;20015;-78
2023/07/14 09:36:39;;;;;;;1.30;1.23;;;28.30;64.20;;;;;;4955564;28;20029;-79
2023/07/14 09:39:11;;;;;;;1.95;1.35;;;29.10;63.60;;;;;;4955827;28;20054;-79
2023/07/14 09:41:36;;;;;;;1.40;1.30;;;29.90;60.00;;;;;;4973107;28;20025;-79
2023/07/14 09:44:02;;;;;;;2.65;1.30;;;30.00;59.40;;;;;;4972805;28;20109;-79
2023/07/14 09:46:44;;;;;;;1.17;1.00;;;28.40;63.20;;;;;;4955263;28;20070;-79
2023/07/14 09:49:20;;;;;;;3.50;1.38;;;28.00;66.20;;;;;;4955243;28;20499;-78
2023/07/14 09:52:10;;;;;;;2.28;1.00;;;27.50;63.10;;;;;;4955266;28;20061;-78
2023/07/14 09:54:52;;;;;;;2.30;1.50;;;26.30;67.30;;;;;;4955168;28;20022;-79
2023/07/14 09:57:20;;;;;;;3.22;1.50;;;26.30;71.50;;;;;;4955134;28;20023;-78
2023/07/14 09:59:54;;;;;;;1.60;1.27;;;27.20;67.30;;;;;;4972519;28;20034;-78
2023/07/14 10:02:25;;;;;;;2.50;1.58;;;27.50;64.90;;;;;;4955053;28;20037;-79
2023/07/14 10:04:58;;;;;;;2.17;1.23;;;26.60;65.90;;;;;;4954457;28;20038;-79
2023/07/14 10:07:26;;;;;;;4.32;1.05;;;27.20;65.60;;;;;;4971693;28;20018;-78
2023/07/14 10:10:01;;;;;;;1.67;1.52;;;28.30;64.60;;;;;;4972194;28;20101;-78
2023/07/14 10:12:47;;;;;;;1.02;0.90;;;29.10;64.80;;;;;;4955089;28;20058;-79
2023/07/14 10:15:30;;;;;;;3.88;1.08;;;29.10;61.00;;;;;;4972096;28;20022;-79
2023/07/14 10:18:12;;;;;;;1.65;1.55;;;28.90;63.70;;;;;;4954617;28;20034;-78
2023/07/14 10:20:39;;;;;;;1.85;1.55;;;28.70;62.70;;;;;;4954122;28;20065;-78
2023/07/14 10:23:16;;;;;;;1.10;1.00;;;28.90;62.70;;;;;;4954657;28;20465;-78
2023/07/14 10:25:49;;;;;;;1.20;1.05;;;29.40;65.40;;;;;;4954639;28;20406;-79
2023/07/14 10:28:23;;;;;;;1.77;1.40;;;29.20;59.40;;;;;;4954695;28;20027;-79
2023/07/14 10:31:21;;;;;;;3.42;1.20;;;28.80;59.80;;;;;;4972165;28;20034;-79
2023/07/14 10:34:13;;;;;;;3.33;0.93;;;28.70;59.90;;;;;;4955216;28;20078;-79
2023/07/14 10:36:40;;;;;;;5.13;1.27;;;28.10;61.00;;;;;;4954448;28;20126;-78
2023/07/14 10:39:42;;;;;;;2.33;1.42;;;28.50;62.20;;;;;;4972021;28;20171;-79
2023/07/14 10:42:14;;;;;;;3.33;1.25;;;28.50;62.40;;;;;;4932261;28;20038;-79
2023/07/14 10:44:44;;;;;;;2.30;0.85;;;28.50;61.70;;;;;;4954274;28;20182;-79
2023/07/14 10:47:36;;;;;;;2.58;1.40;;;29.70;62.10;;;;;;4954359;28;20125;-79
2023/07/14 10:50:08;;;;;;;1.58;0.70;;;29.90;58.90;;;;;;4953793;28;20022;-79
2023/07/14 10:52:41;;;;;;;1.52;1.42;;;30.70;59.50;;;;;;4972085;28;20019;-79
2023/07/14 10:55:28;;;;;;;1.60;1.20;;;31.20;58.70;;;;;;4971586;28;20030;-79
2023/07/14 10:58:03;;;;;;;2.38;0.93;;;30.50;56.90;;;;;;4954080;28;20399;-79
2023/07/14 11:00:40;;;;;;;2.90;1.30;;;30.70;58.40;;;;;;4954612;28;20037;-78
2023/07/14 11:03:18;;;;;;;5.22;1.05;;;31.00;57.00;;;;;;4953614;28;20632;-78
2023/07/14 11:06:13;;;;;;;2.55;1.02;;;31.20;57.40;;;;;;4953685;28;20036;-79
2023/07/14 11:08:39;;;;;;;1.00;0.90;;;31.50;59.20;;;;;;4952144;28;20037;-78
2023/07/14 11:11:40;;;;;;;1.50;0.90;;;31.40;58.20;;;;;;4953995;28;20030;-79
2023/07/14 11:14:28;;;;;;;1.10;0.98;;;30.10;58.10;;;;;;4911836;28;20036;-78
2023/07/14 11:17:06;;;;;;;6.88;0.90;;;29.60;58.70;;;;;;4971516;28;20090;-79
2023/07/14 11:20:09;;;;;;;1.33;1.00;;;29.00;60.20;;;;;;4970921;28;20022;-78
2023/07/14 11:23:08;;;;;;;2.95;1.23;;;28.80;60.10;;;;;;4954009;28;20035;-78
2023/07/14 11:25:42;;;;;;;;;;;28.90;61.70;;;;;;4954296;28;20349;-79
2023/07/14 11:28:34;;;;;;;1.70;1.17;;;29.70;59.10;;;;;;4971105;28;19913;-78
2023/07/14 11:31:03;;;;;;;3.72;1.05;;;30.60;59.00;;;;;;4971487;28;20050;-79
2023/07/14 11:33:49;;;;;;;0.93;0.90;;;29.90;58.50;;;;;;4953735;28;20175;-79
2023/07/14 11:36:20;;;;;;;2.22;1.77;;;30.50;58.70;;;;;;4953188;28;20033;-79
2023/07/14 11:39:03;;;;;;;1.75;1.40;;;30.80;56.50;;;;;;4970824;28;20077;-79
2023/07/14 11:41:30;;;;;;;4.38;1.40;;;32.30;55.80;;;;;;4953845;28;20046;-79
2023/07/14 11:43:58;;;;;;;1.67;0.93;;;32.40;56.80;;;;;;4953386;28;20038;-79
2023/07/14 11:46:25;;;;;;;3.42;0.93;;;32.00;54.40;;;;;;4953682;28;20186;-78
2023/07/14 11:48:54;;;;;;;3.17;1.00;;;31.60;55.80;;;;;;4971766;28;20019;-79
2023/07/14 11:51:41;;;;;;;1.20;1.17;;;30.70;55.70;;;;;;4953450;28;20109;-79
2023/07/14 11:54:12;;;;;;;1.13;0.90;;;30.50;57.70;;;;;;4953224;28;20051;-79
2023/07/14 11:56:39;;;;;;;1.60;1.00;;;30.80;57.80;;;;;;4970654;28;20027;-78
2023/07/14 11:59:25;;;;;;;1.92;0.80;;;30.50;55.90;;;;;;4970842;28;20358;-79
2023/07/14 12:01:52;;;;;;;0.93;0.93;;;30.30;57.50;;;;;;4953527;28;20035;-78
2023/07/14 12:04:34;;;;;;;2.28;1.25;;;30.30;61.10;;;;;;4952710;28;20031;-80
2023/07/14 12:07:16;;;;;;;0.98;0.90;;;31.00;56.80;;;;;;4953198;28;20049;-78
2023/07/14 12:10:15;;;;;;;1.10;1.00;;;30.50;58.00;;;;;;4970629;28;20051;-78
2023/07/14 12:13:15;;;;;;;2.40;1.15;;;30.00;60.50;;;;;;4952930;28;20487;-78
2023/07/14 12:15:57;;;;;;;2.08;1.75;;;30.80;56.80;;;;;;4970731;28;20349;-78
2023/07/14 12:18:34;;;;;;;3.65;1.20;;;31.40;57.30;;;;;;4953248;28;20126;-78
2023/07/14 12:21:15;;;;;;;1.48;1.25;;;31.40;57.20;;;;;;4952746;28;20047;-78
2023/07/14 12:24:10;;;;;;;2.63;1.25;;;31.50;60.10;;;;;;4970826;28;20117;-78
2023/07/14 12:27:00;;;;;;;2.25;1.10;;;30.40;56.20;;;;;;4946368;28;20039;-78
2023/07/14 12:29:27;;;;;;;4.00;1.50;;;29.40;57.80;;;;;;4970584;28;20027;-78
2023/07/14 12:31:55;;;;;;;1.38;0.98;;;29.40;59.00;;;;;;4955139;28;20135;-79
2023/07/14 12:34:24;;;;;;;2.27;1.20;;;29.20;60.30;;;;;;4956567;28;20035;-79
2023/07/14 12:36:50;;;;;;;4.32;1.02;;;29.20;60.10;;;;;;4973928;28;20090;-79
2023/07/14 12:39:16;;;;;;;1.00;1.00;;;29.60;58.00;;;;;;4956608;28;20073;-79
2023/07/14 12:41:49;;;;;;;1.13;1.00;;;29.90;58.40;;;;;;4956531;28;20019;-78
2023/07/14 12:44:35;;;;;;;1.73;1.50;;;30.30;60.00;;;;;;4956808;28;20038;-79
2023/07/14 12:47:02;;;;;;;1.98;1.30;;;30.90;58.40;;;;;;4974394;28;20336;-78
2023/07/14 12:49:46;;;;;;;1.05;0.95;;;30.20;57.50;;;;;;4973378;28;20034;-79
2023/07/14 12:52:32;;;;;;;3.13;0.57;;;30.70;58.70;;;;;;4956302;28;20027;-78
2023/07/14 12:55:09;;;;;;;0.80;0.80;;;30.40;56.70;;;;;;4956343;28;20023;-78
2023/07/14 12:57:36;;;;;;;1.73;0.88;;;30.60;56.90;;;;;;4974059;28;20030;-78
2023/07/14 13:00:20;;;;;;;1.17;0.88;;;30.90;57.40;;;;;;4973955;28;20023;-79
2023/07/14 13:02:47;;;;;;;1.83;1.13;;;31.00;57.70;;;;;;4956366;28;20057;-78
2023/07/14 13:05:14;;;;;;;1.08;0.80;;;30.30;56.00;;;;;;4973316;28;20038;-78
2023/07/14 13:07:44;;;;;;;1.80;0.95;;;30.70;57.40;;;;;;4973726;28;20031;-79
2023/07/14 13:10:24;;;;;;;0.80;0.70;;;31.10;56.90;;;;;;4973574;28;20084;-79